sensor_id;sensor_type;location;lat;lon;timestamp;pressure;altitude;pressure_sealevel;temperature;humidity
61906;BME280;47863;55.766;37.672;2022-09-09T00:00:40;100632.13;;;7.54;70.60
61906;BME280;47863;55.766;37.672;2022-09-09T00:06:03;100634.66;;;7.55;71.15
61906;BME280;47863;55.766;37.672;2022-09-09T00:11:16;100639.63;;;7.60;69.79
61906;BME280;47863;55.766;37.672;2022-09-09T00:13:48;100641.72;;;7.57;70.57
61906;BME280;47863;55.766;37.672;2022-09-09T00:21:42;100634.66;;;7.55;70.44
61906;BME280;47863;55.766;37.672;2022-09-09T00:24:32;100638.31;;;7.54;70.93
61906;BME280;47863;55.766;37.672;2022-09-09T00:27:11;100628.97;;;7.49;70.78
61906;BME280;47863;55.766;37.672;2022-09-09T00:29:55;100650.91;;;7.52;70.63
61906;BME280;47863;55.766;37.672;2022-09-09T00:32:24;100631.41;;;7.41;70.82
61906;BME280;47863;55.766;37.672;2022-09-09T00:34:56;100648.38;;;7.51;70.72
61906;BME280;47863;55.766;37.672;2022-09-09T00:37:26;100641.56;;;7.47;70.44
61906;BME280;47863;55.766;37.672;2022-09-09T00:39:55;100635.03;;;7.40;70.54
61906;BME280;47863;55.766;37.672;2022-09-09T00:47:53;100663.84;;;7.46;70.72
61906;BME280;47863;55.766;37.672;2022-09-09T00:55:24;100659.00;;;7.40;71.15
61906;BME280;47863;55.766;37.672;2022-09-09T00:57:54;100651.50;;;7.33;71.30
61906;BME280;47863;55.766;37.672;2022-09-09T01:03:06;100658.66;;;7.33;70.81
61906;BME280;47863;55.766;37.672;2022-09-09T01:11:16;100673.03;;;7.30;71.58
61906;BME280;47863;55.766;37.672;2022-09-09T01:13:45;100669.91;;;7.25;71.45
61906;BME280;47863;55.766;37.672;2022-09-09T01:16:13;100677.41;;;7.31;71.73
61906;BME280;47863;55.766;37.672;2022-09-09T01:18:44;100676.31;;;7.34;72.08
61906;BME280;47863;55.766;37.672;2022-09-09T01:26:42;100679.97;;;7.33;71.88
61906;BME280;47863;55.766;37.672;2022-09-09T01:29:12;100685.41;;;7.31;71.75
61906;BME280;47863;55.766;37.672;2022-09-09T01:31:59;100669.91;;;7.25;71.42
61906;BME280;47863;55.766;37.672;2022-09-09T01:34:34;100682.75;;;7.31;71.44
61906;BME280;47863;55.766;37.672;2022-09-09T01:37:05;100686.97;;;7.23;71.64
61906;BME280;47863;55.766;37.672;2022-09-09T01:39:37;100695.81;;;7.23;71.58
61906;BME280;47863;55.766;37.672;2022-09-09T01:42:06;100678.09;;;7.11;72.20
61906;BME280;47863;55.766;37.672;2022-09-09T01:44:34;100701.47;;;7.19;72.40
61906;BME280;47863;55.766;37.672;2022-09-09T01:47:01;100696.28;;;7.17;72.01
61906;BME280;47863;55.766;37.672;2022-09-09T01:49:27;100688.50;;;7.14;72.29
61906;BME280;47863;55.766;37.672;2022-09-09T01:51:55;100691.06;;;7.15;72.51
61906;BME280;47863;55.766;37.672;2022-09-09T01:54:22;100695.56;;;7.15;72.18
61906;BME280;47863;55.766;37.672;2022-09-09T01:57:27;100699.53;;;7.21;72.28
61906;BME280;47863;55.766;37.672;2022-09-09T02:00:05;100707.44;;;7.22;72.47
61906;BME280;47863;55.766;37.672;2022-09-09T02:05:36;100702.97;;;7.23;72.27
61906;BME280;47863;55.766;37.672;2022-09-09T02:08:14;100706.94;;;7.28;72.09
61906;BME280;47863;55.766;37.672;2022-09-09T02:10:50;100709.50;;;7.30;71.97
61906;BME280;47863;55.766;37.672;2022-09-09T02:13:21;100714.00;;;7.29;72.16
61906;BME280;47863;55.766;37.672;2022-09-09T02:18:15;100710.81;;;7.24;71.72
61906;BME280;47863;55.766;37.672;2022-09-09T02:20:45;100700.88;;;7.15;71.68
61906;BME280;47863;55.766;37.672;2022-09-09T02:23:12;100714.22;;;7.15;72.02
61906;BME280;47863;55.766;37.672;2022-09-09T02:25:40;100714.91;;;7.06;72.71
61906;BME280;47863;55.766;37.672;2022-09-09T02:28:07;100714.16;;;7.04;73.32
61906;BME280;47863;55.766;37.672;2022-09-09T02:30:37;100719.50;;;7.04;73.10
61906;BME280;47863;55.766;37.672;2022-09-09T02:33:04;100719.72;;;7.01;72.89
61906;BME280;47863;55.766;37.672;2022-09-09T02:35:32;100720.06;;;6.96;72.45
61906;BME280;47863;55.766;37.672;2022-09-09T02:38:05;100725.75;;;6.91;72.31
61906;BME280;47863;55.766;37.672;2022-09-09T02:40:33;100706.03;;;6.70;72.62
61906;BME280;47863;55.766;37.672;2022-09-09T02:42:58;100733.16;;;6.75;73.48
61906;BME280;47863;55.766;37.672;2022-09-09T02:45:31;100740.00;;;6.66;74.01
61906;BME280;47863;55.766;37.672;2022-09-09T02:48:30;100752.19;;;6.58;74.19
61906;BME280;47863;55.766;37.672;2022-09-09T02:51:08;100755.63;;;6.47;74.12
61906;BME280;47863;55.766;37.672;2022-09-09T02:53:54;100746.50;;;6.38;74.28
61906;BME280;47863;55.766;37.672;2022-09-09T02:56:25;100750.66;;;6.29;75.44
61906;BME280;47863;55.766;37.672;2022-09-09T02:58:53;100762.59;;;6.24;75.53
61906;BME280;47863;55.766;37.672;2022-09-09T03:01:20;100762.53;;;6.12;75.57
61906;BME280;47863;55.766;37.672;2022-09-09T03:03:46;100748.38;;;5.99;75.76
61906;BME280;47863;55.766;37.672;2022-09-09T03:06:11;100762.63;;;5.98;76.27
61906;BME280;47863;55.766;37.672;2022-09-09T03:08:37;100762.28;;;5.90;76.87
61906;BME280;47863;55.766;37.672;2022-09-09T03:11:03;100755.16;;;5.78;76.31
61906;BME280;47863;55.766;37.672;2022-09-09T03:13:28;100760.91;;;5.71;76.90
61906;BME280;47863;55.766;37.672;2022-09-09T03:15:54;100765.16;;;5.74;77.81
61906;BME280;47863;55.766;37.672;2022-09-09T03:18:20;100770.56;;;5.72;78.02
61906;BME280;47863;55.766;37.672;2022-09-09T03:20:46;100741.69;;;5.55;78.02
61906;BME280;47863;55.766;37.672;2022-09-09T03:23:14;100759.84;;;5.61;78.01
61906;BME280;47863;55.766;37.672;2022-09-09T03:25:46;100769.31;;;5.65;78.50
61906;BME280;47863;55.766;37.672;2022-09-09T03:28:11;100766.22;;;5.59;78.64
61906;BME280;47863;55.766;37.672;2022-09-09T03:30:37;100781.31;;;5.58;78.60
61906;BME280;47863;55.766;37.672;2022-09-09T03:33:03;100780.47;;;5.57;78.91
61906;BME280;47863;55.766;37.672;2022-09-09T03:35:29;100784.06;;;5.56;78.87
61906;BME280;47863;55.766;37.672;2022-09-09T03:37:55;100788.53;;;5.56;78.99
61906;BME280;47863;55.766;37.672;2022-09-09T03:40:21;100783.22;;;5.56;79.04
61906;BME280;47863;55.766;37.672;2022-09-09T03:42:46;100786.53;;;5.60;79.18
61906;BME280;47863;55.766;37.672;2022-09-09T03:45:13;100791.63;;;5.63;79.23
61906;BME280;47863;55.766;37.672;2022-09-09T03:47:38;100799.19;;;5.69;79.27
61906;BME280;47863;55.766;37.672;2022-09-09T03:50:06;100790.34;;;5.68;79.24
61906;BME280;47863;55.766;37.672;2022-09-09T03:52:40;100795.16;;;5.76;79.08
61906;BME280;47863;55.766;37.672;2022-09-09T03:55:07;100793.47;;;5.75;78.72
61906;BME280;47863;55.766;37.672;2022-09-09T03:57:33;100774.09;;;5.73;79.02
61906;BME280;47863;55.766;37.672;2022-09-09T04:00:05;100796.00;;;5.89;78.98
61906;BME280;47863;55.766;37.672;2022-09-09T04:02:30;100805.56;;;5.92;78.79
61906;BME280;47863;55.766;37.672;2022-09-09T04:04:56;100807.97;;;5.97;78.55
61906;BME280;47863;55.766;37.672;2022-09-09T04:07:22;100791.13;;;5.96;78.43
61906;BME280;47863;55.766;37.672;2022-09-09T04:09:47;100792.63;;;6.00;77.93
61906;BME280;47863;55.766;37.672;2022-09-09T04:12:13;100804.22;;;6.12;78.05
61906;BME280;47863;55.766;37.672;2022-09-09T04:14:39;100804.66;;;6.19;78.04
61906;BME280;47863;55.766;37.672;2022-09-09T04:17:04;100793.16;;;6.18;77.59
61906;BME280;47863;55.766;37.672;2022-09-09T04:19:32;100796.88;;;6.28;77.32
61906;BME280;47863;55.766;37.672;2022-09-09T04:21:57;100795.59;;;6.34;77.19
61906;BME280;47863;55.766;37.672;2022-09-09T04:24:23;100805.78;;;6.40;77.06
61906;BME280;47863;55.766;37.672;2022-09-09T04:26:50;100801.94;;;6.44;77.05
61906;BME280;47863;55.766;37.672;2022-09-09T04:29:15;100803.19;;;6.51;76.80
61906;BME280;47863;55.766;37.672;2022-09-09T04:31:41;100813.44;;;6.58;76.69
61906;BME280;47863;55.766;37.672;2022-09-09T04:34:11;100811.06;;;6.66;76.84
61906;BME280;47863;55.766;37.672;2022-09-09T04:36:36;100814.13;;;6.72;75.98
61906;BME280;47863;55.766;37.672;2022-09-09T04:39:02;100804.38;;;6.84;75.46
61906;BME280;47863;55.766;37.672;2022-09-09T04:41:27;100798.50;;;6.92;74.51
61906;BME280;47863;55.766;37.672;2022-09-09T04:43:54;100806.56;;;7.03;74.37
61906;BME280;47863;55.766;37.672;2022-09-09T04:46:20;100793.00;;;7.06;73.60
61906;BME280;47863;55.766;37.672;2022-09-09T04:48:49;100807.00;;;7.21;73.41
61906;BME280;47863;55.766;37.672;2022-09-09T04:51:15;100815.28;;;7.29;73.32
61906;BME280;47863;55.766;37.672;2022-09-09T04:53:41;100796.97;;;7.25;72.94
61906;BME280;47863;55.766;37.672;2022-09-09T04:56:10;100819.66;;;7.42;72.54
61906;BME280;47863;55.766;37.672;2022-09-09T04:58:37;100818.38;;;7.47;72.57
61906;BME280;47863;55.766;37.672;2022-09-09T05:01:07;100815.22;;;7.53;72.45
61906;BME280;47863;55.766;37.672;2022-09-09T05:03:33;100817.44;;;7.60;71.53
61906;BME280;47863;55.766;37.672;2022-09-09T05:06:10;100816.84;;;7.67;72.41
61906;BME280;47863;55.766;37.672;2022-09-09T05:08:39;100821.38;;;7.78;71.81
61906;BME280;47863;55.766;37.672;2022-09-09T05:11:15;100826.84;;;7.88;71.28
61906;BME280;47863;55.766;37.672;2022-09-09T05:13:42;100828.78;;;7.97;71.18
61906;BME280;47863;55.766;37.672;2022-09-09T05:16:08;100817.03;;;8.00;71.53
61906;BME280;47863;55.766;37.672;2022-09-09T05:18:37;100821.53;;;8.10;71.05
61906;BME280;47863;55.766;37.672;2022-09-09T05:21:03;100829.06;;;8.28;69.68
61906;BME280;47863;55.766;37.672;2022-09-09T05:23:29;100835.19;;;8.41;69.80
61906;BME280;47863;55.766;37.672;2022-09-09T05:25:58;100807.22;;;8.34;69.98
61906;BME280;47863;55.766;37.672;2022-09-09T05:28:27;100841.59;;;8.61;69.35
61906;BME280;47863;55.766;37.672;2022-09-09T05:31:00;100839.28;;;8.79;68.17
61906;BME280;47863;55.766;37.672;2022-09-09T05:33:29;100849.28;;;8.98;67.72
61906;BME280;47863;55.766;37.672;2022-09-09T05:35:56;100849.38;;;9.19;66.26
61906;BME280;47863;55.766;37.672;2022-09-09T05:38:22;100839.06;;;9.47;65.40
61906;BME280;47863;55.766;37.672;2022-09-09T05:40:51;100845.84;;;9.93;63.77
61906;BME280;47863;55.766;37.672;2022-09-09T05:43:18;100842.91;;;10.69;61.80
61906;BME280;47863;55.766;37.672;2022-09-09T05:45:57;100845.28;;;11.61;58.75
61906;BME280;47863;55.766;37.672;2022-09-09T05:48:23;100842.28;;;12.50;56.22
61906;BME280;47863;55.766;37.672;2022-09-09T05:50:53;100847.84;;;12.95;54.77
61906;BME280;47863;55.766;37.672;2022-09-09T05:53:19;100837.00;;;12.86;53.10
61906;BME280;47863;55.766;37.672;2022-09-09T05:55:45;100847.09;;;12.75;54.32
61906;BME280;47863;55.766;37.672;2022-09-09T05:58:11;100849.16;;;12.63;53.40
61906;BME280;47863;55.766;37.672;2022-09-09T06:00:36;100836.72;;;12.62;54.43
61906;BME280;47863;55.766;37.672;2022-09-09T06:03:03;100848.63;;;13.05;53.10
61906;BME280;47863;55.766;37.672;2022-09-09T06:05:29;100843.06;;;13.52;51.01
61906;BME280;47863;55.766;37.672;2022-09-09T06:07:55;100845.31;;;13.75;49.77
61906;BME280;47863;55.766;37.672;2022-09-09T06:10:21;100847.94;;;13.66;49.94
61906;BME280;47863;55.766;37.672;2022-09-09T06:12:47;100852.38;;;13.40;51.01
61906;BME280;47863;55.766;37.672;2022-09-09T06:15:12;100866.56;;;13.14;50.23
61906;BME280;47863;55.766;37.672;2022-09-09T06:17:38;100865.88;;;12.84;50.24
61906;BME280;47863;55.766;37.672;2022-09-09T06:20:04;100868.41;;;12.58;50.85
61906;BME280;47863;55.766;37.672;2022-09-09T06:22:30;100859.72;;;12.37;51.18
61906;BME280;47863;55.766;37.672;2022-09-09T06:24:56;100868.06;;;12.34;52.48
61906;BME280;47863;55.766;37.672;2022-09-09T06:27:22;100852.63;;;12.36;52.76
61906;BME280;47863;55.766;37.672;2022-09-09T06:29:47;100857.91;;;12.93;50.04
61906;BME280;47863;55.766;37.672;2022-09-09T06:32:13;100868.72;;;14.00;48.14
61906;BME280;47863;55.766;37.672;2022-09-09T06:34:39;100866.13;;;15.28;45.32
61906;BME280;47863;55.766;37.672;2022-09-09T06:37:05;100866.13;;;16.51;41.99
61906;BME280;47863;55.766;37.672;2022-09-09T06:39:31;100863.72;;;17.35;39.89
61906;BME280;47863;55.766;37.672;2022-09-09T06:41:57;100866.31;;;18.51;38.45
61906;BME280;47863;55.766;37.672;2022-09-09T06:44:24;100873.47;;;20.04;35.84
61906;BME280;47863;55.766;37.672;2022-09-09T06:46:52;100866.44;;;21.34;33.65
61906;BME280;47863;55.766;37.672;2022-09-09T06:49:17;100869.34;;;22.93;30.63
61906;BME280;47863;55.766;37.672;2022-09-09T06:51:43;100858.50;;;23.88;29.30
61906;BME280;47863;55.766;37.672;2022-09-09T06:54:10;100872.78;;;25.14;27.34
61906;BME280;47863;55.766;37.672;2022-09-09T06:56:39;100870.78;;;26.53;24.99
61906;BME280;47863;55.766;37.672;2022-09-09T06:59:09;100873.78;;;27.90;22.80
61906;BME280;47863;55.766;37.672;2022-09-09T07:01:37;100877.28;;;29.19;21.44
61906;BME280;47863;55.766;37.672;2022-09-09T07:04:04;100889.59;;;29.61;20.76
61906;BME280;47863;55.766;37.672;2022-09-09T07:06:37;100884.47;;;30.02;19.90
61906;BME280;47863;55.766;37.672;2022-09-09T07:09:07;100881.19;;;29.23;19.92
61906;BME280;47863;55.766;37.672;2022-09-09T07:11:38;100889.13;;;27.40;22.10
61906;BME280;47863;55.766;37.672;2022-09-09T07:14:04;100903.91;;;25.39;24.03
61906;BME280;47863;55.766;37.672;2022-09-09T07:16:29;100902.19;;;25.26;24.73
61906;BME280;47863;55.766;37.672;2022-09-09T07:18:57;100896.59;;;25.75;23.58
61906;BME280;47863;55.766;37.672;2022-09-09T07:21:27;100896.16;;;25.47;23.19
61906;BME280;47863;55.766;37.672;2022-09-09T07:23:53;100904.28;;;24.25;24.47
61906;BME280;47863;55.766;37.672;2022-09-09T07:26:22;100904.34;;;24.18;25.81
61906;BME280;47863;55.766;37.672;2022-09-09T07:28:48;100907.72;;;24.64;24.72
61906;BME280;47863;55.766;37.672;2022-09-09T07:31:22;100903.41;;;26.26;23.24
61906;BME280;47863;55.766;37.672;2022-09-09T07:33:48;100907.44;;;27.80;21.25
61906;BME280;47863;55.766;37.672;2022-09-09T07:38:51;100906.00;;;28.40;20.71
61906;BME280;47863;55.766;37.672;2022-09-09T07:41:20;100918.47;;;27.23;20.58
61906;BME280;47863;55.766;37.672;2022-09-09T07:43:48;100908.50;;;25.57;22.57
61906;BME280;47863;55.766;37.672;2022-09-09T07:46:15;100899.66;;;25.06;22.38
61906;BME280;47863;55.766;37.672;2022-09-09T07:48:46;100926.22;;;24.68;22.54
61906;BME280;47863;55.766;37.672;2022-09-09T07:51:14;100925.19;;;23.55;23.20
61906;BME280;47863;55.766;37.672;2022-09-09T07:53:50;100926.69;;;23.51;24.60
61906;BME280;47863;55.766;37.672;2022-09-09T07:56:17;100925.47;;;24.61;23.00
61906;BME280;47863;55.766;37.672;2022-09-09T07:58:47;100932.78;;;25.71;21.62
61906;BME280;47863;55.766;37.672;2022-09-09T08:01:18;100927.19;;;25.48;22.39
61906;BME280;47863;55.766;37.672;2022-09-09T08:03:46;100940.53;;;24.45;22.20
61906;BME280;47863;55.766;37.672;2022-09-09T08:06:12;100930.19;;;23.27;23.65
61906;BME280;47863;55.766;37.672;2022-09-09T08:08:39;100937.06;;;22.11;24.79
61906;BME280;47863;55.766;37.672;2022-09-09T08:11:14;100933.06;;;21.93;26.03
61906;BME280;47863;55.766;37.672;2022-09-09T08:13:42;100930.75;;;23.42;24.44
61906;BME280;47863;55.766;37.672;2022-09-09T08:16:16;100934.66;;;25.04;23.86
61906;BME280;47863;55.766;37.672;2022-09-09T08:18:42;100934.44;;;26.38;22.24
61906;BME280;47863;55.766;37.672;2022-09-09T08:21:17;100924.22;;;28.80;20.61
61906;BME280;47863;55.766;37.672;2022-09-09T08:23:44;100926.41;;;29.99;17.94
61906;BME280;47863;55.766;37.672;2022-09-09T08:26:12;100935.56;;;29.72;17.38
61906;BME280;47863;55.766;37.672;2022-09-09T08:28:39;100935.28;;;28.46;18.39
61906;BME280;47863;55.766;37.672;2022-09-09T08:31:11;100939.09;;;26.97;19.81
61906;BME280;47863;55.766;37.672;2022-09-09T08:33:37;100937.88;;;25.19;21.79
61906;BME280;47863;55.766;37.672;2022-09-09T08:36:05;100940.41;;;23.83;23.46
61906;BME280;47863;55.766;37.672;2022-09-09T08:38:31;100932.25;;;22.53;24.63
61906;BME280;47863;55.766;37.672;2022-09-09T08:46:55;100944.03;;;22.40;25.82
61906;BME280;47863;55.766;37.672;2022-09-09T08:52:03;100946.19;;;24.00;23.00
61906;BME280;47863;55.766;37.672;2022-09-09T08:54:35;100933.41;;;23.94;22.98
61906;BME280;47863;55.766;37.672;2022-09-09T08:57:03;100945.63;;;24.42;22.22
61906;BME280;47863;55.766;37.672;2022-09-09T08:59:34;100942.66;;;24.68;24.58
61906;BME280;47863;55.766;37.672;2022-09-09T09:02:21;100943.91;;;23.59;23.91
61906;BME280;47863;55.766;37.672;2022-09-09T09:05:17;100954.31;;;22.45;25.19
61906;BME280;47863;55.766;37.672;2022-09-09T09:10:45;100958.56;;;20.48;28.41
61906;BME280;47863;55.766;37.672;2022-09-09T09:16:33;100968.16;;;22.56;26.81
61906;BME280;47863;55.766;37.672;2022-09-09T09:19:00;100955.13;;;24.64;24.36
61906;BME280;47863;55.766;37.672;2022-09-09T09:21:34;100951.22;;;26.72;21.30
61906;BME280;47863;55.766;37.672;2022-09-09T09:24:05;100945.59;;;28.90;19.55
61906;BME280;47863;55.766;37.672;2022-09-09T09:26:34;100941.56;;;29.69;17.86
61906;BME280;47863;55.766;37.672;2022-09-09T09:29:12;100942.50;;;29.53;18.63
61906;BME280;47863;55.766;37.672;2022-09-09T09:31:53;100954.91;;;28.33;18.59
61906;BME280;47863;55.766;37.672;2022-09-09T09:34:20;100946.91;;;26.64;20.07
61906;BME280;47863;55.766;37.672;2022-09-09T09:36:58;100944.81;;;25.40;21.34
61906;BME280;47863;55.766;37.672;2022-09-09T09:39:30;100960.66;;;24.07;22.58
61906;BME280;47863;55.766;37.672;2022-09-09T09:41:56;100961.16;;;22.94;23.89
61906;BME280;47863;55.766;37.672;2022-09-09T09:44:26;100958.69;;;22.12;24.99
61906;BME280;47863;55.766;37.672;2022-09-09T09:46:53;100946.34;;;21.42;26.09
61906;BME280;47863;55.766;37.672;2022-09-09T09:49:30;100931.13;;;21.06;26.62
61906;BME280;47863;55.766;37.672;2022-09-09T09:52:00;100941.03;;;22.02;26.12
61906;BME280;47863;55.766;37.672;2022-09-09T09:54:34;100955.84;;;24.28;23.79
61906;BME280;47863;55.766;37.672;2022-09-09T09:57:14;100958.91;;;27.10;22.32
61906;BME280;47863;55.766;37.672;2022-09-09T09:59:41;100936.84;;;28.98;18.66
61906;BME280;47863;55.766;37.672;2022-09-09T10:02:31;100949.38;;;30.04;18.65
61906;BME280;47863;55.766;37.672;2022-09-09T10:05:08;100941.56;;;28.98;17.69
61906;BME280;47863;55.766;37.672;2022-09-09T10:07:37;100927.56;;;27.35;19.57
61906;BME280;47863;55.766;37.672;2022-09-09T10:10:05;100945.16;;;26.04;19.85
61906;BME280;47863;55.766;37.672;2022-09-09T10:13:04;100951.59;;;24.82;21.38
61906;BME280;47863;55.766;37.672;2022-09-09T10:18:22;100960.63;;;22.32;24.37
61906;BME280;47863;55.766;37.672;2022-09-09T10:30:10;100954.06;;;25.58;23.84
61906;BME280;47863;55.766;37.672;2022-09-09T10:35:24;100956.97;;;30.19;18.21
61906;BME280;47863;55.766;37.672;2022-09-09T10:40:29;100951.03;;;33.08;14.76
61906;BME280;47863;55.766;37.672;2022-09-09T10:51:47;100963.59;;;28.42;17.60
61906;BME280;47863;55.766;37.672;2022-09-09T10:59:52;100952.03;;;23.27;22.98
61906;BME280;47863;55.766;37.672;2022-09-09T11:02:28;100960.59;;;22.25;23.59
61906;BME280;47863;55.766;37.672;2022-09-09T11:05:04;100962.78;;;21.55;25.03
61906;BME280;47863;55.766;37.672;2022-09-09T11:07:34;100954.94;;;20.97;26.41
61906;BME280;47863;55.766;37.672;2022-09-09T11:10:14;100947.97;;;21.29;26.16
61906;BME280;47863;55.766;37.672;2022-09-09T11:12:44;100960.16;;;22.15;25.16
61906;BME280;47863;55.766;37.672;2022-09-09T11:15:36;100959.44;;;24.03;24.15
61906;BME280;47863;55.766;37.672;2022-09-09T11:18:06;100953.63;;;25.91;21.24
61906;BME280;47863;55.766;37.672;2022-09-09T11:20:36;100949.66;;;27.69;18.97
61906;BME280;47863;55.766;37.672;2022-09-09T11:23:06;100954.59;;;28.63;17.86
61906;BME280;47863;55.766;37.672;2022-09-09T11:29:19;100956.66;;;26.25;19.58
61906;BME280;47863;55.766;37.672;2022-09-09T11:32:54;100954.75;;;24.35;21.06
61906;BME280;47863;55.766;37.672;2022-09-09T11:40:16;100951.00;;;21.06;24.67
61906;BME280;47863;55.766;37.672;2022-09-09T11:42:42;100955.59;;;20.14;26.43
61906;BME280;47863;55.766;37.672;2022-09-09T11:47:51;100939.97;;;21.89;25.40
61906;BME280;47863;55.766;37.672;2022-09-09T11:52:45;100947.28;;;25.30;20.95
61906;BME280;47863;55.766;37.672;2022-09-09T11:58:02;100962.84;;;26.20;19.72
61906;BME280;47863;55.766;37.672;2022-09-09T12:02:59;100953.91;;;23.71;21.47
61906;BME280;47863;55.766;37.672;2022-09-09T12:05:37;100958.91;;;22.64;22.52
61906;BME280;47863;55.766;37.672;2022-09-09T12:08:05;100953.06;;;21.39;24.76
61906;BME280;47863;55.766;37.672;2022-09-09T12:10:33;100950.91;;;20.58;26.18
61906;BME280;47863;55.766;37.672;2022-09-09T12:13:20;100949.69;;;20.32;25.68
61906;BME280;47863;55.766;37.672;2022-09-09T12:15:55;100953.72;;;20.15;26.50
61906;BME280;47863;55.766;37.672;2022-09-09T12:18:37;100941.38;;;21.04;25.92
61906;BME280;47863;55.766;37.672;2022-09-09T12:26:36;100952.88;;;25.53;22.41
61906;BME280;47863;55.766;37.672;2022-09-09T12:29:08;100944.84;;;26.36;19.61
61906;BME280;47863;55.766;37.672;2022-09-09T12:34:46;100944.22;;;28.03;19.07
61906;BME280;47863;55.766;37.672;2022-09-09T12:39:44;100946.81;;;27.64;18.65
61906;BME280;47863;55.766;37.672;2022-09-09T12:42:19;100958.88;;;27.22;19.15
61906;BME280;47863;55.766;37.672;2022-09-09T12:44:52;100928.91;;;25.91;19.70
61906;BME280;47863;55.766;37.672;2022-09-09T12:47:20;100951.28;;;24.47;21.21
61906;BME280;47863;55.766;37.672;2022-09-09T12:49:48;100948.06;;;23.23;22.96
61906;BME280;47863;55.766;37.672;2022-09-09T12:54:46;100954.03;;;22.93;24.20
61906;BME280;47863;55.766;37.672;2022-09-09T12:57:13;100949.56;;;23.19;23.89
61906;BME280;47863;55.766;37.672;2022-09-09T12:59:42;100936.78;;;23.06;23.86
61906;BME280;47863;55.766;37.672;2022-09-09T13:02:26;100943.28;;;23.50;23.79
61906;BME280;47863;55.766;37.672;2022-09-09T13:04:53;100940.34;;;23.13;23.55
61906;BME280;47863;55.766;37.672;2022-09-09T13:07:20;100938.34;;;22.35;24.07
61906;BME280;47863;55.766;37.672;2022-09-09T13:09:47;100912.06;;;21.12;25.52
61906;BME280;47863;55.766;37.672;2022-09-09T13:12:17;100939.38;;;20.28;26.54
61906;BME280;47863;55.766;37.672;2022-09-09T13:14:46;100945.72;;;19.34;28.13
61906;BME280;47863;55.766;37.672;2022-09-09T13:17:27;100950.66;;;18.56;27.85
61906;BME280;47863;55.766;37.672;2022-09-09T13:19:56;100953.50;;;17.78;30.81
61906;BME280;47863;55.766;37.672;2022-09-09T13:22:33;100944.34;;;17.25;29.81
61906;BME280;47863;55.766;37.672;2022-09-09T13:27:33;100955.91;;;16.30;33.29
61906;BME280;47863;55.766;37.672;2022-09-09T13:30:00;100951.34;;;15.90;33.53
61906;BME280;47863;55.766;37.672;2022-09-09T13:32:27;100945.84;;;15.57;33.84
61906;BME280;47863;55.766;37.672;2022-09-09T13:34:55;100944.94;;;15.32;34.55
61906;BME280;47863;55.766;37.672;2022-09-09T13:37:37;100949.44;;;15.15;33.64
61906;BME280;47863;55.766;37.672;2022-09-09T13:40:05;100951.34;;;14.88;36.28
61906;BME280;47863;55.766;37.672;2022-09-09T13:42:33;100942.91;;;14.57;36.47
61906;BME280;47863;55.766;37.672;2022-09-09T13:45:02;100950.31;;;14.37;36.85
61906;BME280;47863;55.766;37.672;2022-09-09T13:47:34;100949.53;;;14.18;37.40
61906;BME280;47863;55.766;37.672;2022-09-09T13:50:30;100944.91;;;14.11;35.25
61906;BME280;47863;55.766;37.672;2022-09-09T13:52:57;100949.59;;;14.08;37.86
61906;BME280;47863;55.766;37.672;2022-09-09T13:55:25;100945.44;;;14.14;37.25
61906;BME280;47863;55.766;37.672;2022-09-09T13:57:56;100927.28;;;14.16;37.35
61906;BME280;47863;55.766;37.672;2022-09-09T14:00:22;100927.69;;;14.29;37.75
61906;BME280;47863;55.766;37.672;2022-09-09T14:02:49;100939.38;;;14.38;36.65
61906;BME280;47863;55.766;37.672;2022-09-09T14:05:16;100941.06;;;14.39;36.59
61906;BME280;47863;55.766;37.672;2022-09-09T14:07:42;100931.44;;;14.37;36.32
61906;BME280;47863;55.766;37.672;2022-09-09T14:10:10;100927.28;;;14.42;36.50
61906;BME280;47863;55.766;37.672;2022-09-09T14:12:36;100941.34;;;14.54;36.27
61906;BME280;47863;55.766;37.672;2022-09-09T14:15:04;100927.47;;;14.49;36.43
61906;BME280;47863;55.766;37.672;2022-09-09T14:17:30;100933.25;;;14.54;36.50
61906;BME280;47863;55.766;37.672;2022-09-09T14:19:57;100937.88;;;14.62;35.92
61906;BME280;47863;55.766;37.672;2022-09-09T14:22:23;100929.53;;;14.55;36.13
61906;BME280;47863;55.766;37.672;2022-09-09T14:24:49;100926.56;;;14.58;35.57
61906;BME280;47863;55.766;37.672;2022-09-09T14:27:16;100917.22;;;14.53;35.79
61906;BME280;47863;55.766;37.672;2022-09-09T14:29:41;100934.44;;;14.52;36.46
61906;BME280;47863;55.766;37.672;2022-09-09T14:32:10;100937.03;;;14.43;36.55
61906;BME280;47863;55.766;37.672;2022-09-09T14:34:35;100940.84;;;14.33;36.67
61906;BME280;47863;55.766;37.672;2022-09-09T14:37:01;100940.13;;;14.22;36.97
61906;BME280;47863;55.766;37.672;2022-09-09T14:39:26;100936.69;;;14.12;38.02
61906;BME280;47863;55.766;37.672;2022-09-09T14:41:52;100933.06;;;14.03;38.12
61906;BME280;47863;55.766;37.672;2022-09-09T14:44:18;100937.22;;;13.98;37.52
61906;BME280;47863;55.766;37.672;2022-09-09T14:46:44;100935.53;;;13.97;38.01
61906;BME280;47863;55.766;37.672;2022-09-09T14:49:09;100933.13;;;13.94;39.06
61906;BME280;47863;55.766;37.672;2022-09-09T14:51:38;100931.31;;;13.94;40.10
61906;BME280;47863;55.766;37.672;2022-09-09T14:54:04;100923.75;;;13.98;39.51
61906;BME280;47863;55.766;37.672;2022-09-09T14:56:32;100942.50;;;14.07;37.71
61906;BME280;47863;55.766;37.672;2022-09-09T14:59:00;100921.13;;;13.88;38.06
61906;BME280;47863;55.766;37.672;2022-09-09T15:01:26;100942.78;;;13.96;38.30